createdAt,value
2023-02-01T00:01:21.867Z,12.00
2023-02-01T00:03:49.016Z,12.40
2023-02-01T00:06:16.052Z,12.18
2023-02-01T00:08:43.043Z,11.85
2023-02-01T00:11:11.629Z,13.15
2023-02-01T00:13:41.174Z,11.50
2023-02-01T00:16:09.398Z,12.68
2023-02-01T00:18:37.011Z,11.20
2023-02-01T00:21:04.053Z,13.13
2023-02-01T00:23:34.261Z,11.55
2023-02-01T00:28:29.468Z,12.40
2023-02-01T00:30:58.143Z,13.23
2023-02-01T00:33:25.343Z,13.48
2023-02-01T00:35:52.497Z,12.23
2023-02-01T00:38:19.483Z,14.23
2023-02-01T00:40:46.294Z,13.18
2023-02-01T00:43:13.216Z,12.30
2023-02-01T00:45:40.044Z,12.00
2023-02-01T00:48:07.020Z,13.27
2023-02-01T00:50:33.940Z,12.80
2023-02-01T00:53:00.858Z,12.00
2023-02-01T00:55:27.660Z,14.15
2023-02-01T00:57:54.501Z,12.77
2023-02-01T01:00:21.832Z,14.27
2023-02-01T01:02:49.617Z,12.90
2023-02-01T01:05:16.349Z,12.38
2023-02-01T01:07:43.216Z,13.98
2023-02-01T01:10:10.516Z,13.45
2023-02-01T01:12:37.480Z,12.02
2023-02-01T01:15:05.077Z,14.38
2023-02-01T01:17:32.779Z,14.38
2023-02-01T01:20:00.149Z,15.70
2023-02-01T01:22:27.045Z,15.90
2023-02-01T01:24:53.902Z,18.65
2023-02-01T01:27:24.439Z,14.48
2023-02-01T01:29:51.571Z,15.50
2023-02-01T01:32:18.593Z,15.40
2023-02-01T01:34:45.520Z,15.10
2023-02-01T01:37:12.375Z,13.82
2023-02-01T01:39:39.130Z,14.50
2023-02-01T01:42:06.325Z,13.07
2023-02-01T01:45:00.008Z,11.80
2023-02-01T01:47:32.361Z,10.70
2023-02-01T01:52:25.952Z,9.55
2023-02-01T01:54:54.615Z,10.00
2023-02-01T01:57:27.142Z,10.90
2023-02-01T02:00:06.250Z,8.27
2023-02-01T02:02:41.708Z,11.82
2023-02-01T02:05:09.328Z,12.18
2023-02-01T02:07:39.120Z,12.95
2023-02-01T02:10:11.677Z,12.43
2023-02-01T02:12:43.365Z,13.18
2023-02-01T02:15:12.938Z,12.95
2023-02-01T02:17:53.557Z,12.60
2023-02-01T02:20:51.396Z,13.95
2023-02-01T02:23:23.589Z,11.82
2023-02-01T02:26:03.650Z,12.10
2023-02-01T02:29:08.851Z,10.90
2023-02-01T02:31:57.630Z,9.73
2023-02-01T02:34:41.061Z,9.02
2023-02-01T02:37:28.903Z,8.43
2023-02-01T02:40:16.490Z,8.10
2023-02-01T02:43:24.971Z,8.23
2023-02-01T02:46:31.715Z,8.38
2023-02-01T02:49:11.555Z,7.45
2023-02-01T02:52:08.921Z,7.97
2023-02-01T02:54:51.759Z,8.85
2023-02-01T02:57:44.750Z,9.25
2023-02-01T03:00:37.622Z,8.20
2023-02-01T03:03:23.765Z,8.90
2023-02-01T03:05:51.582Z,8.45
2023-02-01T03:08:20.900Z,8.35
2023-02-01T03:10:57.281Z,7.88
2023-02-01T03:13:42.389Z,7.68
2023-02-01T03:16:28.073Z,7.55
2023-02-01T03:19:00.863Z,7.22
2023-02-01T03:21:39.811Z,6.78
2023-02-01T03:24:14.322Z,6.88
2023-02-01T03:26:46.722Z,8.40
2023-02-01T03:29:18.901Z,8.07
2023-02-01T03:31:46.100Z,9.27
2023-02-01T03:34:13.915Z,9.57
2023-02-01T03:37:04.380Z,10.25
2023-02-01T03:39:35.723Z,9.60
2023-02-01T03:42:28.477Z,9.82
2023-02-01T03:45:01.702Z,10.10
2023-02-01T03:47:31.117Z,9.35
2023-02-01T03:50:26.262Z,9.88
2023-02-01T03:53:07.543Z,9.65
2023-02-01T03:55:36.679Z,9.48
2023-02-01T03:58:13.969Z,10.32
2023-02-01T04:00:41.908Z,10.07
2023-02-01T04:03:08.948Z,9.10
2023-02-01T04:05:35.709Z,8.82
2023-02-01T04:08:06.247Z,7.60
2023-02-01T04:10:33.201Z,9.90
2023-02-01T04:13:00.445Z,9.05
2023-02-01T04:15:27.359Z,9.43
2023-02-01T04:17:54.217Z,9.65
2023-02-01T04:20:21.615Z,9.43
2023-02-01T04:22:48.683Z,9.43
2023-02-01T04:25:15.683Z,9.02
2023-02-01T04:27:42.772Z,9.68
2023-02-01T04:30:10.927Z,8.40
2023-02-01T04:32:38.967Z,10.10
2023-02-01T04:35:06.859Z,6.93
2023-02-01T04:37:34.517Z,5.47
2023-02-01T04:40:01.558Z,4.95
2023-02-01T04:42:28.564Z,3.80
2023-02-01T04:44:55.746Z,4.00
2023-02-01T04:47:22.662Z,4.38
2023-02-01T04:49:49.474Z,6.03
2023-02-01T04:52:16.179Z,7.00
2023-02-01T04:54:43.188Z,7.82
2023-02-01T04:57:10.144Z,8.40
2023-02-01T04:59:37.272Z,9.20
2023-02-01T05:02:04.146Z,9.95
2023-02-01T05:04:31.186Z,9.73
2023-02-01T05:06:58.203Z,10.73
2023-02-01T05:09:24.986Z,11.65
2023-02-01T05:12:10.565Z,10.00
2023-02-01T05:14:37.377Z,9.77
2023-02-01T05:17:04.527Z,11.00
2023-02-01T05:19:31.535Z,10.02
2023-02-01T05:21:58.620Z,9.70
2023-02-01T05:24:25.600Z,10.32
2023-02-01T05:26:52.559Z,8.32
2023-02-01T05:29:19.943Z,9.05
2023-02-01T05:31:47.602Z,8.88
2023-02-01T05:34:16.138Z,8.95
2023-02-01T05:36:43.119Z,9.30
2023-02-01T05:39:11.143Z,7.60
2023-02-01T05:41:38.687Z,7.97
2023-02-01T05:44:08.373Z,7.15
2023-02-01T05:46:36.701Z,6.23
2023-02-01T05:49:04.481Z,6.22
2023-02-01T05:51:31.747Z,5.82
2023-02-01T05:53:58.659Z,5.93
2023-02-01T05:56:25.504Z,5.60
2023-02-01T05:58:52.420Z,5.93
2023-02-01T06:01:19.331Z,6.22
2023-02-01T06:03:46.586Z,6.25
2023-02-01T06:06:13.591Z,6.45
2023-02-01T06:08:43.323Z,7.07
2023-02-01T06:11:13.396Z,7.30
2023-02-01T06:13:40.506Z,7.60
2023-02-01T06:16:08.482Z,8.02
2023-02-01T06:18:36.463Z,7.95
2023-02-01T06:21:03.505Z,7.85
2023-02-01T06:23:31.359Z,6.32
2023-02-01T06:26:06.856Z,8.40
2023-02-01T06:28:34.145Z,7.75
2023-02-01T06:31:07.600Z,8.63
2023-02-01T06:33:35.519Z,6.22
2023-02-01T06:36:04.935Z,7.53
2023-02-01T06:38:32.540Z,8.77
2023-02-01T06:41:00.496Z,6.25
2023-02-01T06:43:28.411Z,8.98
2023-02-01T06:46:00.528Z,9.05
2023-02-01T06:48:27.604Z,8.40
2023-02-01T06:50:54.396Z,8.15
2023-02-01T06:53:21.453Z,7.10
2023-02-01T06:55:55.479Z,8.65
2023-02-01T06:58:22.775Z,8.70
2023-02-01T07:00:49.689Z,8.13
2023-02-01T07:03:16.925Z,8.20
2023-02-01T07:05:44.203Z,8.07
2023-02-01T07:08:10.975Z,8.02
2023-02-01T07:10:38.511Z,8.45
2023-02-01T07:13:05.933Z,8.40
2023-02-01T07:15:32.799Z,8.57
2023-02-01T07:18:00.883Z,8.13
2023-02-01T07:20:28.998Z,6.50
2023-02-01T07:22:59.281Z,6.78
2023-02-01T07:25:26.419Z,7.40
2023-02-01T07:27:53.527Z,6.85
2023-02-01T07:30:20.868Z,6.38
2023-02-01T07:32:47.929Z,7.35
2023-02-01T07:35:15.280Z,8.80
2023-02-01T07:37:42.169Z,7.68
2023-02-01T07:40:09.912Z,6.68
2023-02-01T07:42:36.779Z,7.35
2023-02-01T07:45:19.860Z,6.35
2023-02-01T07:47:48.155Z,6.22
2023-02-01T07:50:15.423Z,6.03
2023-02-01T07:52:43.001Z,6.07
2023-02-01T07:55:10.459Z,6.20
2023-02-01T07:57:37.409Z,5.45
2023-02-01T08:00:23.797Z,5.25
2023-02-01T08:02:51.494Z,5.90
2023-02-01T08:05:18.430Z,6.63
2023-02-01T08:07:45.337Z,6.13
2023-02-01T08:10:12.570Z,6.53
2023-02-01T08:12:39.768Z,4.93
2023-02-01T08:15:07.231Z,5.88
2023-02-01T08:17:34.513Z,5.43
2023-02-01T08:20:01.820Z,5.72
2023-02-01T08:22:32.941Z,5.30
2023-02-01T08:25:02.554Z,5.95
2023-02-01T08:27:29.617Z,5.80
2023-02-01T08:29:56.676Z,5.45
2023-02-01T08:32:23.557Z,6.30
2023-02-01T08:34:51.053Z,4.93
2023-02-01T08:37:17.905Z,6.20
2023-02-01T08:39:47.637Z,4.65
2023-02-01T08:42:33.351Z,5.57
2023-02-01T08:45:00.306Z,6.05
2023-02-01T08:47:27.485Z,5.90
2023-02-01T08:49:54.575Z,5.38
2023-02-01T08:52:21.677Z,4.93
2023-02-01T08:54:48.464Z,4.97
2023-02-01T08:57:15.495Z,4.70
2023-02-01T08:59:42.652Z,4.00
2023-02-01T09:02:13.471Z,5.03
2023-02-01T09:04:40.991Z,4.15
2023-02-01T09:07:08.591Z,3.63
2023-02-01T09:09:35.354Z,3.83
2023-02-01T09:12:04.090Z,3.95
2023-02-01T09:14:31.242Z,4.90
2023-02-01T09:16:58.240Z,4.70
2023-02-01T09:19:26.865Z,3.92
2023-02-01T09:21:54.297Z,3.85
2023-02-01T09:24:21.404Z,3.85
2023-02-01T09:26:48.281Z,4.18
2023-02-01T09:29:15.275Z,3.85
2023-02-01T09:31:49.851Z,4.03
2023-02-01T09:34:24.376Z,3.97
2023-02-01T09:36:51.302Z,4.40
2023-02-01T09:39:18.395Z,3.40
2023-02-01T09:42:10.270Z,3.85
2023-02-01T09:44:52.199Z,3.38
2023-02-01T09:47:21.659Z,3.90
2023-02-01T09:50:05.803Z,3.80
2023-02-01T09:52:39.411Z,3.60
2023-02-01T09:55:34.853Z,3.67
2023-02-01T09:58:31.223Z,4.10
2023-02-01T10:01:00.949Z,3.13
2023-02-01T10:03:31.654Z,4.10
2023-02-01T10:06:07.403Z,3.63
2023-02-01T10:09:03.509Z,3.97
2023-02-01T10:11:49.392Z,3.47
2023-02-01T10:14:28.160Z,3.78
2023-02-01T10:17:15.229Z,4.05
2023-02-01T10:20:00.302Z,4.15
2023-02-01T10:23:13.679Z,3.70
2023-02-01T10:25:42.695Z,3.92
2023-02-01T10:28:16.618Z,3.53
2023-02-01T10:30:46.726Z,3.88
2023-02-01T10:33:25.858Z,4.43
2023-02-01T10:36:06.095Z,3.35
2023-02-01T10:38:34.220Z,4.53
2023-02-01T10:41:10.768Z,4.15
2023-02-01T10:43:39.292Z,3.45
2023-02-01T10:46:07.822Z,3.15
2023-02-01T10:48:35.824Z,3.30
2023-02-01T10:51:17.665Z,3.05
2023-02-01T10:53:53.579Z,3.08
2023-02-01T10:56:25.938Z,3.10
2023-02-01T10:59:04.237Z,3.40
2023-02-01T11:01:48.175Z,3.13
2023-02-01T11:04:21.289Z,3.05
2023-02-01T11:06:48.370Z,3.42
2023-02-01T11:09:25.912Z,3.55
2023-02-01T11:11:52.927Z,2.58
2023-02-01T11:14:28.785Z,3.10
2023-02-01T11:16:59.064Z,3.03
2023-02-01T11:21:54.682Z,2.88
2023-02-01T11:24:25.988Z,3.30
2023-02-01T11:26:57.044Z,3.88
2023-02-01T11:29:30.939Z,3.28
2023-02-01T11:31:59.809Z,3.75
2023-02-01T11:34:45.208Z,3.17
2023-02-01T11:37:23.238Z,3.28
2023-02-01T11:40:02.237Z,3.70
2023-02-01T11:42:29.810Z,3.10
2023-02-01T11:45:18.641Z,3.58
2023-02-01T11:47:47.125Z,3.30
2023-02-01T11:50:22.416Z,3.22
2023-02-01T11:53:27.123Z,2.85
2023-02-01T11:55:59.830Z,3.13
2023-02-01T11:58:29.415Z,2.83
2023-02-01T12:01:11.757Z,3.05
2023-02-01T12:03:41.622Z,2.95
2023-02-01T12:06:32.416Z,3.15
2023-02-01T12:09:06.681Z,3.53
2023-02-01T12:12:00.121Z,2.80
2023-02-01T12:15:07.349Z,3.00
2023-02-01T12:17:58.995Z,2.80
2023-02-01T12:20:44.289Z,2.90
2023-02-01T12:23:37.040Z,2.53
2023-02-01T12:26:32.011Z,3.60
2023-02-01T12:29:20.640Z,2.25
2023-02-01T12:32:06.152Z,3.13
2023-02-01T12:34:32.956Z,3.45
2023-02-01T12:37:11.277Z,2.47
2023-02-01T12:40:13.112Z,3.65
2023-02-01T12:42:44.459Z,2.85
2023-02-01T12:45:26.621Z,2.75
2023-02-01T12:48:42.968Z,2.80
2023-02-01T12:51:26.424Z,2.30
2023-02-01T12:54:01.352Z,2.63
2023-02-01T12:56:33.899Z,2.47
2023-02-01T12:59:04.273Z,2.58
2023-02-01T13:04:16.243Z,2.10
2023-02-01T13:06:47.562Z,2.40
2023-02-01T13:09:44.564Z,2.55
2023-02-01T13:12:18.784Z,2.97
2023-02-01T13:14:55.137Z,2.67
2023-02-01T13:17:32.146Z,2.47
2023-02-01T13:20:17.359Z,2.97
2023-02-01T13:22:51.564Z,1.55
2023-02-01T13:25:49.208Z,3.55
2023-02-01T13:28:23.208Z,2.15
2023-02-01T13:30:58.926Z,2.50
2023-02-01T13:33:54.643Z,2.25
2023-02-01T13:36:18.842Z,2.42
2023-02-01T13:39:14.991Z,2.63
2023-02-01T13:42:04.264Z,2.42
2023-02-01T13:44:44.072Z,2.15
2023-02-01T13:47:30.323Z,3.10
2023-02-01T13:50:04.077Z,2.40
2023-02-01T13:52:39.882Z,2.58
2023-02-01T13:55:21.093Z,2.15
2023-02-01T13:57:50.591Z,1.55
2023-02-01T14:00:37.543Z,2.50
2023-02-01T14:03:07.613Z,2.28
2023-02-01T14:05:35.467Z,2.22
2023-02-01T14:08:05.641Z,2.65
2023-02-01T14:10:52.355Z,2.70
2023-02-01T14:13:40.614Z,2.08
2023-02-01T14:16:07.544Z,3.42
2023-02-01T14:18:34.715Z,2.50
2023-02-01T14:21:24.069Z,2.30
2023-02-01T14:23:54.470Z,3.03
2023-02-01T14:26:28.107Z,2.33
2023-02-01T14:29:02.448Z,2.15
2023-02-01T14:31:34.641Z,2.40
2023-02-01T14:34:06.284Z,2.42
2023-02-01T14:36:45.619Z,1.75
2023-02-01T14:39:34.168Z,2.17
2023-02-01T14:42:04.635Z,1.98
2023-02-01T14:44:37.087Z,2.65
2023-02-01T14:47:26.917Z,2.85
2023-02-01T14:50:04.361Z,2.40
2023-02-01T14:52:35.124Z,2.47
2023-02-01T14:55:07.664Z,2.45
2023-02-01T14:57:37.380Z,2.30
2023-02-01T15:00:18.464Z,2.70
2023-02-01T15:02:47.522Z,2.20
2023-02-01T15:05:31.800Z,2.50
2023-02-01T15:08:03.945Z,2.50
2023-02-01T15:10:32.742Z,2.25
2023-02-01T15:12:59.618Z,2.42
2023-02-01T15:15:26.967Z,2.13
2023-02-01T15:18:01.201Z,2.30
2023-02-01T15:20:32.601Z,2.50
2023-02-01T15:23:02.112Z,2.85
2023-02-01T15:25:31.693Z,2.40
2023-02-01T15:27:58.963Z,2.35
2023-02-01T15:30:34.483Z,2.50
2023-02-01T15:33:28.353Z,2.70
2023-02-01T15:36:07.344Z,3.08
2023-02-01T15:38:37.453Z,2.03
2023-02-01T15:43:42.475Z,2.83
2023-02-01T15:46:19.727Z,3.33
2023-02-01T15:48:53.209Z,2.80
2023-02-01T15:51:23.385Z,2.78
2023-02-01T15:56:27.840Z,2.53
2023-02-01T15:59:01.049Z,2.30
2023-02-01T16:01:28.577Z,2.88
2023-02-01T16:04:18.231Z,3.08
2023-02-01T16:06:50.931Z,2.17
2023-02-01T16:09:20.509Z,2.83
2023-02-01T16:12:02.059Z,2.80
2023-02-01T16:14:29.569Z,2.65
2023-02-01T16:16:59.494Z,2.17
2023-02-01T16:19:29.220Z,2.03
2023-02-01T16:21:56.954Z,2.25
2023-02-01T16:24:26.158Z,2.20
2023-02-01T16:26:53.150Z,2.25
2023-02-01T16:29:19.963Z,2.28
2023-02-01T16:31:49.572Z,5.10
2023-02-01T16:34:20.276Z,3.15
2023-02-01T16:36:53.055Z,6.30
2023-02-01T16:39:23.197Z,4.15
2023-02-01T16:41:50.655Z,3.78
2023-02-01T16:44:17.502Z,3.83
2023-02-01T16:46:47.333Z,2.88
2023-02-01T16:49:24.933Z,2.47
2023-02-01T16:51:56.298Z,2.40
2023-02-01T16:54:23.177Z,2.72
2023-02-01T16:56:50.444Z,3.15
2023-02-01T16:59:17.337Z,3.58
2023-02-01T17:01:44.451Z,2.35
2023-02-01T17:04:12.541Z,2.30
2023-02-01T17:06:40.240Z,3.33
2023-02-01T17:09:08.303Z,2.78
2023-02-01T17:11:35.886Z,3.20
2023-02-01T17:14:15.906Z,3.08
2023-02-01T17:16:44.049Z,2.63
2023-02-01T17:19:15.061Z,2.63
2023-02-01T17:21:45.316Z,2.50
2023-02-01T17:24:17.114Z,2.92
2023-02-01T17:26:44.637Z,2.05
2023-02-01T17:29:12.532Z,2.92
2023-02-01T17:31:42.123Z,3.15
2023-02-01T17:34:11.120Z,3.58
2023-02-01T17:36:40.103Z,2.75
2023-02-01T17:39:07.027Z,2.92
2023-02-01T17:41:34.339Z,2.80
2023-02-01T17:44:01.743Z,3.35
2023-02-01T17:46:28.830Z,2.78
2023-02-01T17:48:55.976Z,3.47
2023-02-01T17:51:27.310Z,2.08
2023-02-01T17:53:54.798Z,3.45
2023-02-01T17:56:23.547Z,2.92
2023-02-01T17:58:50.913Z,2.78
2023-02-01T18:01:23.485Z,2.83
2023-02-01T18:03:51.029Z,2.60
2023-02-01T18:06:21.357Z,2.67
2023-02-01T18:11:17.390Z,2.95
2023-02-01T18:13:44.351Z,3.58
2023-02-01T18:16:38.005Z,3.60
2023-02-01T18:19:05.463Z,2.17
2023-02-01T18:21:43.658Z,3.08
2023-02-01T18:24:14.539Z,3.90
2023-02-01T18:26:42.134Z,3.00
2023-02-01T18:29:09.348Z,2.60
2023-02-01T18:31:40.165Z,2.30
2023-02-01T18:34:09.620Z,2.40
2023-02-01T18:36:36.485Z,3.03
2023-02-01T18:39:03.524Z,2.92
2023-02-01T18:41:30.303Z,3.45
2023-02-01T18:43:56.910Z,3.22
2023-02-01T18:46:23.780Z,3.08
2023-02-01T18:48:50.744Z,3.10
2023-02-01T18:51:20.234Z,2.55
2023-02-01T18:53:48.398Z,3.00
2023-02-01T18:56:18.145Z,3.45
2023-02-01T18:58:45.499Z,3.10
2023-02-01T19:01:17.717Z,3.05
2023-02-01T19:03:52.635Z,3.20
2023-02-01T19:06:26.270Z,3.03
2023-02-01T19:08:56.125Z,2.83
2023-02-01T19:13:51.295Z,3.08
2023-02-01T19:16:18.367Z,3.22
2023-02-01T19:18:45.332Z,3.17
2023-02-01T19:21:13.481Z,2.85
2023-02-01T19:23:42.184Z,2.83
2023-02-01T19:26:12.761Z,3.75
2023-02-01T19:28:39.761Z,3.45
2023-02-01T19:31:08.280Z,3.22
2023-02-01T19:33:35.543Z,3.00
2023-02-01T19:36:06.096Z,4.25
2023-02-01T19:38:34.529Z,2.78
2023-02-01T19:41:01.812Z,3.13
2023-02-01T19:43:28.768Z,2.83
2023-02-01T19:45:56.113Z,2.70
2023-02-01T19:48:23.167Z,3.13
2023-02-01T19:50:50.097Z,2.60
2023-02-01T19:53:16.862Z,2.95
2023-02-01T19:55:47.241Z,3.22
2023-02-01T19:58:14.741Z,3.00
2023-02-01T20:00:41.136Z,2.50
2023-02-01T20:03:08.171Z,2.92
2023-02-01T20:05:35.405Z,2.45
2023-02-01T20:08:02.531Z,2.60
2023-02-01T20:10:29.635Z,2.90
2023-02-01T20:12:56.498Z,3.45
2023-02-01T20:15:27.074Z,3.30
2023-02-01T20:17:54.707Z,3.05
2023-02-01T20:20:23.159Z,2.70
2023-02-01T20:22:51.996Z,2.95
2023-02-01T20:25:18.814Z,2.72
2023-02-01T20:27:46.363Z,2.88
2023-02-01T20:30:19.968Z,2.88
2023-02-01T20:32:49.564Z,3.13
2023-02-01T20:35:16.872Z,3.30
2023-02-01T20:37:43.895Z,2.78
2023-02-01T20:40:11.769Z,2.28
2023-02-01T20:42:38.873Z,2.70
2023-02-01T20:45:06.537Z,3.00
2023-02-01T20:47:34.072Z,2.97
2023-02-01T20:50:01.264Z,3.45
2023-02-01T20:52:28.075Z,2.90
2023-02-01T20:54:55.115Z,3.35
2023-02-01T20:57:22.017Z,2.70
2023-02-01T20:59:49.820Z,3.15
2023-02-01T21:02:17.355Z,2.72
2023-02-01T21:04:44.252Z,2.88
2023-02-01T21:07:11.075Z,3.10
2023-02-01T21:09:40.835Z,2.97
2023-02-01T21:12:07.815Z,2.75
2023-02-01T21:14:34.726Z,3.10
2023-02-01T21:17:02.103Z,3.53
2023-02-01T21:19:29.007Z,3.05
2023-02-01T21:21:56.005Z,3.65
2023-02-01T21:24:22.834Z,3.25
2023-02-01T21:26:49.979Z,3.08
2023-02-01T21:29:17.095Z,2.78
2023-02-01T21:31:44.107Z,2.78
2023-02-01T21:34:10.867Z,3.22
2023-02-01T21:36:37.926Z,3.25
2023-02-01T21:39:07.961Z,3.50
2023-02-01T21:41:54.582Z,3.92
2023-02-01T21:44:22.279Z,3.30
2023-02-01T21:46:49.420Z,4.10
2023-02-01T21:49:16.668Z,3.38
2023-02-01T21:51:43.546Z,3.85
2023-02-01T21:54:11.252Z,3.03
2023-02-01T21:56:38.696Z,3.75
2023-02-01T21:59:06.028Z,3.60
2023-02-01T22:01:33.456Z,2.67
2023-02-01T22:04:00.527Z,2.85
2023-02-01T22:06:33.057Z,3.28
2023-02-01T22:09:00.688Z,3.78
2023-02-01T22:11:27.706Z,3.60
2023-02-01T22:13:54.946Z,3.40
2023-02-01T22:16:21.963Z,2.95
2023-02-01T22:18:50.092Z,3.28
2023-02-01T22:21:18.269Z,3.35
2023-02-01T22:23:45.492Z,3.55
2023-02-01T22:26:13.529Z,3.50
2023-02-01T22:28:40.693Z,4.60
2023-02-01T22:31:09.693Z,3.85
2023-02-01T22:33:37.121Z,3.65
2023-02-01T22:36:04.974Z,3.60
2023-02-01T22:38:33.335Z,4.07
2023-02-01T22:41:02.129Z,4.05
2023-02-01T22:43:29.762Z,3.63
2023-02-01T22:46:01.356Z,3.63
2023-02-01T22:48:29.622Z,3.83
2023-02-01T22:51:00.985Z,3.58
2023-02-01T22:53:29.848Z,3.90
2023-02-01T22:56:01.184Z,3.58
2023-02-01T22:58:28.306Z,3.90
2023-02-01T23:00:55.173Z,3.58
2023-02-01T23:03:22.329Z,3.35
2023-02-01T23:05:49.373Z,4.28
2023-02-01T23:08:16.301Z,4.45
2023-02-01T23:10:43.125Z,3.58
2023-02-01T23:13:09.893Z,4.05
2023-02-01T23:15:39.258Z,4.30
2023-02-01T23:18:06.451Z,3.90
2023-02-01T23:20:33.549Z,3.72
2023-02-01T23:23:01.575Z,3.85
2023-02-01T23:25:28.375Z,4.10
2023-02-01T23:27:55.276Z,3.92
2023-02-01T23:30:22.340Z,4.00
2023-02-01T23:32:49.335Z,4.43
2023-02-01T23:35:16.193Z,4.10
2023-02-01T23:37:42.925Z,4.28
2023-02-01T23:40:10.632Z,3.60
2023-02-01T23:42:37.468Z,4.00
2023-02-01T23:45:05.640Z,3.58
2023-02-01T23:47:32.458Z,3.80
2023-02-01T23:49:59.356Z,3.38
2023-02-01T23:52:26.080Z,3.83
2023-02-01T23:54:52.995Z,4.10
2023-02-01T23:57:19.812Z,3.33
2023-02-01T23:59:49.877Z,4.03
